<?xml version="1.0" encoding="UTF-8" standalone="no" ?>
<gpx xmlns="http://www.topografix.com/GPX/1/1" xmlns:xsi="http://www.w3.org/2001/XMLSchema-instance" xsi:schemaLocation="http://www.topografix.com/GPX/1/1 http://www.topografix.com/GPX/1/1/gpx.xsd" version="1.1" creator="VisuGPX - https://www.visugpx.com">
  <metadata>
    <name>De St Pierre-le-Moutier à Valigny</name>
    <desc><![CDATA[LE CHEMIN VERS COMPOSTELLE, LA VOIE DE VEZELAY PAR NEVERS, par la variante sud de St Pierre le Moutier.]]></desc>
  </metadata>
  <trk>
    <name><![CDATA[9548864-Saint-Pierre-le-Moutier - Valigny]]></name>
    <trkseg>
      <trkpt lat="46.79026" lon="3.11735">
        <ele>215</ele>
        <time>2019-02-07T14:11:29Z</time>
      </trkpt>
      <trkpt lat="46.79017" lon="3.11646">
        <ele>213</ele>
        <time>2019-02-07T14:12:29Z</time>
      </trkpt>
      <trkpt lat="46.79021" lon="3.11572">
        <ele>212</ele>
        <time>2019-02-07T14:13:29Z</time>
      </trkpt>
      <trkpt lat="46.78999" lon="3.11512">
        <ele>211</ele>
        <time>2019-02-07T14:14:29Z</time>
      </trkpt>
      <trkpt lat="46.78943" lon="3.11452">
        <ele>212</ele>
        <time>2019-02-07T14:15:29Z</time>
      </trkpt>
      <trkpt lat="46.78848" lon="3.11374">
        <ele>213</ele>
        <time>2019-02-07T14:16:29Z</time>
      </trkpt>
      <trkpt lat="46.78768" lon="3.1128">
        <ele>213</ele>
        <time>2019-02-07T14:17:29Z</time>
      </trkpt>
      <trkpt lat="46.78718" lon="3.11201">
        <ele>215</ele>
        <time>2019-02-07T14:18:29Z</time>
      </trkpt>
      <trkpt lat="46.78646" lon="3.11102">
        <ele>217</ele>
        <time>2019-02-07T14:19:29Z</time>
      </trkpt>
      <trkpt lat="46.78648" lon="3.11055">
        <ele>217</ele>
        <time>2019-02-07T14:20:29Z</time>
      </trkpt>
      <trkpt lat="46.78602" lon="3.11035">
        <ele>217</ele>
        <time>2019-02-07T14:21:29Z</time>
      </trkpt>
      <trkpt lat="46.78533" lon="3.1092">
        <ele>216</ele>
        <time>2019-02-07T14:22:29Z</time>
      </trkpt>
      <trkpt lat="46.78492" lon="3.10859">
        <ele>215</ele>
        <time>2019-02-07T14:23:29Z</time>
      </trkpt>
      <trkpt lat="46.78463" lon="3.10825">
        <ele>215</ele>
        <time>2019-02-07T14:24:29Z</time>
      </trkpt>
      <trkpt lat="46.78429" lon="3.10797">
        <ele>215</ele>
        <time>2019-02-07T14:25:29Z</time>
      </trkpt>
      <trkpt lat="46.78382" lon="3.10771">
        <ele>217</ele>
        <time>2019-02-07T14:26:29Z</time>
      </trkpt>
      <trkpt lat="46.78401" lon="3.10705">
        <ele>216</ele>
        <time>2019-02-07T14:27:29Z</time>
      </trkpt>
      <trkpt lat="46.78354" lon="3.10671">
        <ele>217</ele>
        <time>2019-02-07T14:28:29Z</time>
      </trkpt>
      <trkpt lat="46.78342" lon="3.1063">
        <ele>217</ele>
        <time>2019-02-07T14:29:29Z</time>
      </trkpt>
      <trkpt lat="46.78347" lon="3.10538">
        <ele>218</ele>
        <time>2019-02-07T14:30:29Z</time>
      </trkpt>
      <trkpt lat="46.78325" lon="3.10477">
        <ele>219</ele>
        <time>2019-02-07T14:31:29Z</time>
      </trkpt>
      <trkpt lat="46.78283" lon="3.10454">
        <ele>220</ele>
        <time>2019-02-07T14:32:29Z</time>
      </trkpt>
      <trkpt lat="46.7826" lon="3.1043">
        <ele>221</ele>
        <time>2019-02-07T14:33:29Z</time>
      </trkpt>
      <trkpt lat="46.78239" lon="3.10269">
        <ele>221</ele>
        <time>2019-02-07T14:34:29Z</time>
      </trkpt>
      <trkpt lat="46.78228" lon="3.1019">
        <ele>222</ele>
        <time>2019-02-07T14:35:29Z</time>
      </trkpt>
      <trkpt lat="46.78069" lon="3.09784">
        <ele>241</ele>
        <time>2019-02-07T14:36:29Z</time>
      </trkpt>
      <trkpt lat="46.78044" lon="3.09765">
        <ele>242</ele>
        <time>2019-02-07T14:37:29Z</time>
      </trkpt>
      <trkpt lat="46.78001" lon="3.09705">
        <ele>243</ele>
        <time>2019-02-07T14:38:29Z</time>
      </trkpt>
      <trkpt lat="46.77967" lon="3.09654">
        <ele>243</ele>
        <time>2019-02-07T14:39:29Z</time>
      </trkpt>
      <trkpt lat="46.77895" lon="3.09583">
        <ele>244</ele>
        <time>2019-02-07T14:40:29Z</time>
      </trkpt>
      <trkpt lat="46.77823" lon="3.09553">
        <ele>246</ele>
        <time>2019-02-07T14:41:29Z</time>
      </trkpt>
      <trkpt lat="46.77738" lon="3.09516">
        <ele>246</ele>
        <time>2019-02-07T14:42:29Z</time>
      </trkpt>
      <trkpt lat="46.77687" lon="3.09497">
        <ele>245</ele>
        <time>2019-02-07T14:43:29Z</time>
      </trkpt>
      <trkpt lat="46.77594" lon="3.09422">
        <ele>245</ele>
        <time>2019-02-07T14:44:29Z</time>
      </trkpt>
      <trkpt lat="46.77487" lon="3.09323">
        <ele>244</ele>
        <time>2019-02-07T14:45:29Z</time>
      </trkpt>
      <trkpt lat="46.77402" lon="3.09196">
        <ele>242</ele>
        <time>2019-02-07T14:46:29Z</time>
      </trkpt>
      <trkpt lat="46.7716" lon="3.08789">
        <ele>232</ele>
        <time>2019-02-07T14:47:29Z</time>
      </trkpt>
      <trkpt lat="46.77299" lon="3.08544">
        <ele>225</ele>
        <time>2019-02-07T14:48:29Z</time>
      </trkpt>
      <trkpt lat="46.77333" lon="3.08456">
        <ele>223</ele>
        <time>2019-02-07T14:49:29Z</time>
      </trkpt>
      <trkpt lat="46.77425" lon="3.08312">
        <ele>214</ele>
        <time>2019-02-07T14:50:29Z</time>
      </trkpt>
      <trkpt lat="46.77503" lon="3.08156">
        <ele>208</ele>
        <time>2019-02-07T14:51:29Z</time>
      </trkpt>
      <trkpt lat="46.7755" lon="3.07997">
        <ele>207</ele>
        <time>2019-02-07T14:52:29Z</time>
      </trkpt>
      <trkpt lat="46.77558" lon="3.0792">
        <ele>203</ele>
        <time>2019-02-07T14:53:29Z</time>
      </trkpt>
      <trkpt lat="46.77559" lon="3.0786">
        <ele>202</ele>
        <time>2019-02-07T14:54:29Z</time>
      </trkpt>
      <trkpt lat="46.77571" lon="3.07795">
        <ele>202</ele>
        <time>2019-02-07T14:55:29Z</time>
      </trkpt>
      <trkpt lat="46.77562" lon="3.07684">
        <ele>203</ele>
        <time>2019-02-07T14:56:29Z</time>
      </trkpt>
      <trkpt lat="46.77572" lon="3.07602">
        <ele>201</ele>
        <time>2019-02-07T14:57:29Z</time>
      </trkpt>
      <trkpt lat="46.77566" lon="3.07531">
        <ele>201</ele>
        <time>2019-02-07T14:58:29Z</time>
      </trkpt>
      <trkpt lat="46.77509" lon="3.07396">
        <ele>205</ele>
        <time>2019-02-07T14:59:29Z</time>
      </trkpt>
      <trkpt lat="46.77503" lon="3.07308">
        <ele>205</ele>
        <time>2019-02-07T15:00:29Z</time>
      </trkpt>
      <trkpt lat="46.77497" lon="3.07164">
        <ele>209</ele>
        <time>2019-02-07T15:01:29Z</time>
      </trkpt>
      <trkpt lat="46.77482" lon="3.06937">
        <ele>215</ele>
        <time>2019-02-07T15:02:29Z</time>
      </trkpt>
      <trkpt lat="46.77411" lon="3.06926">
        <ele>222</ele>
        <time>2019-02-07T15:03:29Z</time>
      </trkpt>
      <trkpt lat="46.77317" lon="3.06943">
        <ele>227</ele>
        <time>2019-02-07T15:04:29Z</time>
      </trkpt>
      <trkpt lat="46.77254" lon="3.0698">
        <ele>226</ele>
        <time>2019-02-07T15:05:29Z</time>
      </trkpt>
      <trkpt lat="46.77147" lon="3.06973">
        <ele>233</ele>
        <time>2019-02-07T15:06:29Z</time>
      </trkpt>
      <trkpt lat="46.77052" lon="3.06952">
        <ele>237</ele>
        <time>2019-02-07T15:07:29Z</time>
      </trkpt>
      <trkpt lat="46.7688" lon="3.06869">
        <ele>242</ele>
        <time>2019-02-07T15:08:29Z</time>
      </trkpt>
      <trkpt lat="46.76837" lon="3.06832">
        <ele>243</ele>
        <time>2019-02-07T15:09:29Z</time>
      </trkpt>
      <trkpt lat="46.76795" lon="3.06708">
        <ele>242</ele>
        <time>2019-02-07T15:10:29Z</time>
      </trkpt>
      <trkpt lat="46.76722" lon="3.06531">
        <ele>239</ele>
        <time>2019-02-07T15:11:29Z</time>
      </trkpt>
      <trkpt lat="46.76673" lon="3.06491">
        <ele>238</ele>
        <time>2019-02-07T15:12:29Z</time>
      </trkpt>
      <trkpt lat="46.76763" lon="3.06474">
        <ele>238</ele>
        <time>2019-02-07T15:13:29Z</time>
      </trkpt>
      <trkpt lat="46.76806" lon="3.06315">
        <ele>232</ele>
        <time>2019-02-07T15:14:29Z</time>
      </trkpt>
      <trkpt lat="46.76983" lon="3.05629">
        <ele>215</ele>
        <time>2019-02-07T15:15:29Z</time>
      </trkpt>
      <trkpt lat="46.77016" lon="3.05491">
        <ele>211</ele>
        <time>2019-02-07T15:16:29Z</time>
      </trkpt>
      <trkpt lat="46.77069" lon="3.05289">
        <ele>206</ele>
        <time>2019-02-07T15:17:29Z</time>
      </trkpt>
      <trkpt lat="46.76984" lon="3.05242">
        <ele>204</ele>
        <time>2019-02-07T15:18:29Z</time>
      </trkpt>
      <trkpt lat="46.76933" lon="3.05204">
        <ele>203</ele>
        <time>2019-02-07T15:19:29Z</time>
      </trkpt>
      <trkpt lat="46.76891" lon="3.05155">
        <ele>202</ele>
        <time>2019-02-07T15:20:29Z</time>
      </trkpt>
      <trkpt lat="46.7686" lon="3.05098">
        <ele>200</ele>
        <time>2019-02-07T15:21:29Z</time>
      </trkpt>
      <trkpt lat="46.76654" lon="3.04922">
        <ele>198</ele>
        <time>2019-02-07T15:22:29Z</time>
      </trkpt>
      <trkpt lat="46.76635" lon="3.04845">
        <ele>196</ele>
        <time>2019-02-07T15:23:29Z</time>
      </trkpt>
      <trkpt lat="46.76653" lon="3.04561">
        <ele>187</ele>
        <time>2019-02-07T15:24:29Z</time>
      </trkpt>
      <trkpt lat="46.76577" lon="3.04545">
        <ele>187</ele>
        <time>2019-02-07T15:25:29Z</time>
      </trkpt>
      <trkpt lat="46.76459" lon="3.0457">
        <ele>186</ele>
        <time>2019-02-07T15:26:29Z</time>
      </trkpt>
      <trkpt lat="46.76419" lon="3.04576">
        <ele>186</ele>
        <time>2019-02-07T15:27:29Z</time>
      </trkpt>
      <trkpt lat="46.76335" lon="3.04622">
        <ele>188</ele>
        <time>2019-02-07T15:28:29Z</time>
      </trkpt>
      <trkpt lat="46.76251" lon="3.04669">
        <ele>186</ele>
        <time>2019-02-07T15:29:29Z</time>
      </trkpt>
      <trkpt lat="46.76222" lon="3.04681">
        <ele>187</ele>
        <time>2019-02-07T15:30:29Z</time>
      </trkpt>
      <trkpt lat="46.76101" lon="3.04809">
        <ele>190</ele>
        <time>2019-02-07T15:31:29Z</time>
      </trkpt>
      <trkpt lat="46.7603" lon="3.04885">
        <ele>190</ele>
        <time>2019-02-07T15:32:29Z</time>
      </trkpt>
      <trkpt lat="46.7596" lon="3.04941">
        <ele>190</ele>
        <time>2019-02-07T15:33:29Z</time>
      </trkpt>
      <trkpt lat="46.7592" lon="3.04992">
        <ele>190</ele>
        <time>2019-02-07T15:34:29Z</time>
      </trkpt>
      <trkpt lat="46.75907" lon="3.05021">
        <ele>192</ele>
        <time>2019-02-07T15:35:29Z</time>
      </trkpt>
      <trkpt lat="46.75892" lon="3.05019">
        <ele>190</ele>
        <time>2019-02-07T15:36:29Z</time>
      </trkpt>
      <trkpt lat="46.75723" lon="3.04795">
        <ele>188</ele>
        <time>2019-02-07T15:37:29Z</time>
      </trkpt>
      <trkpt lat="46.75663" lon="3.04683">
        <ele>187</ele>
        <time>2019-02-07T15:38:29Z</time>
      </trkpt>
      <trkpt lat="46.75652" lon="3.04614">
        <ele>186</ele>
        <time>2019-02-07T15:39:29Z</time>
      </trkpt>
      <trkpt lat="46.7566" lon="3.04548">
        <ele>186</ele>
        <time>2019-02-07T15:40:29Z</time>
      </trkpt>
      <trkpt lat="46.75681" lon="3.04471">
        <ele>187</ele>
        <time>2019-02-07T15:41:29Z</time>
      </trkpt>
      <trkpt lat="46.75681" lon="3.04434">
        <ele>187</ele>
        <time>2019-02-07T15:42:29Z</time>
      </trkpt>
      <trkpt lat="46.75657" lon="3.04374">
        <ele>188</ele>
        <time>2019-02-07T15:43:29Z</time>
      </trkpt>
      <trkpt lat="46.75623" lon="3.04304">
        <ele>190</ele>
        <time>2019-02-07T15:44:29Z</time>
      </trkpt>
      <trkpt lat="46.75624" lon="3.04263">
        <ele>190</ele>
        <time>2019-02-07T15:45:29Z</time>
      </trkpt>
      <trkpt lat="46.75636" lon="3.04187">
        <ele>191</ele>
        <time>2019-02-07T15:46:29Z</time>
      </trkpt>
      <trkpt lat="46.75627" lon="3.04062">
        <ele>191</ele>
        <time>2019-02-07T15:47:29Z</time>
      </trkpt>
      <trkpt lat="46.75627" lon="3.03985">
        <ele>192</ele>
        <time>2019-02-07T15:48:29Z</time>
      </trkpt>
      <trkpt lat="46.75583" lon="3.03943">
        <ele>193</ele>
        <time>2019-02-07T15:49:29Z</time>
      </trkpt>
      <trkpt lat="46.75501" lon="3.03907">
        <ele>191</ele>
        <time>2019-02-07T15:50:29Z</time>
      </trkpt>
      <trkpt lat="46.75446" lon="3.03881">
        <ele>189</ele>
        <time>2019-02-07T15:51:29Z</time>
      </trkpt>
      <trkpt lat="46.75329" lon="3.03798">
        <ele>190</ele>
        <time>2019-02-07T15:52:29Z</time>
      </trkpt>
      <trkpt lat="46.75258" lon="3.03687">
        <ele>189</ele>
        <time>2019-02-07T15:53:29Z</time>
      </trkpt>
      <trkpt lat="46.75197" lon="3.03591">
        <ele>190</ele>
        <time>2019-02-07T15:54:29Z</time>
      </trkpt>
      <trkpt lat="46.75129" lon="3.03513">
        <ele>193</ele>
        <time>2019-02-07T15:55:29Z</time>
      </trkpt>
      <trkpt lat="46.75114" lon="3.03477">
        <ele>194</ele>
        <time>2019-02-07T15:56:29Z</time>
      </trkpt>
      <trkpt lat="46.7508" lon="3.03454">
        <ele>196</ele>
        <time>2019-02-07T15:57:29Z</time>
      </trkpt>
      <trkpt lat="46.75058" lon="3.03447">
        <ele>196</ele>
        <time>2019-02-07T15:58:29Z</time>
      </trkpt>
      <trkpt lat="46.74991" lon="3.03395">
        <ele>197</ele>
        <time>2019-02-07T15:59:29Z</time>
      </trkpt>
      <trkpt lat="46.74939" lon="3.03267">
        <ele>202</ele>
        <time>2019-02-07T16:00:29Z</time>
      </trkpt>
      <trkpt lat="46.74855" lon="3.03109">
        <ele>209</ele>
        <time>2019-02-07T16:01:29Z</time>
      </trkpt>
      <trkpt lat="46.74806" lon="3.03044">
        <ele>210</ele>
        <time>2019-02-07T16:02:29Z</time>
      </trkpt>
      <trkpt lat="46.74742" lon="3.02933">
        <ele>212</ele>
        <time>2019-02-07T16:03:29Z</time>
      </trkpt>
      <trkpt lat="46.74632" lon="3.02777">
        <ele>209</ele>
        <time>2019-02-07T16:04:29Z</time>
      </trkpt>
      <trkpt lat="46.74469" lon="3.02603">
        <ele>208</ele>
        <time>2019-02-07T16:05:29Z</time>
      </trkpt>
      <trkpt lat="46.74432" lon="3.02562">
        <ele>207</ele>
        <time>2019-02-07T16:06:29Z</time>
      </trkpt>
      <trkpt lat="46.74384" lon="3.02627">
        <ele>209</ele>
        <time>2019-02-07T16:07:29Z</time>
      </trkpt>
      <trkpt lat="46.74367" lon="3.02651">
        <ele>209</ele>
        <time>2019-02-07T16:08:29Z</time>
      </trkpt>
      <trkpt lat="46.74345" lon="3.0268">
        <ele>209</ele>
        <time>2019-02-07T16:09:29Z</time>
      </trkpt>
      <trkpt lat="46.74333" lon="3.02685">
        <ele>209</ele>
        <time>2019-02-07T16:10:29Z</time>
      </trkpt>
      <trkpt lat="46.74315" lon="3.02683">
        <ele>209</ele>
        <time>2019-02-07T16:11:29Z</time>
      </trkpt>
      <trkpt lat="46.74293" lon="3.02642">
        <ele>209</ele>
        <time>2019-02-07T16:12:29Z</time>
      </trkpt>
      <trkpt lat="46.74289" lon="3.02615">
        <ele>210</ele>
        <time>2019-02-07T16:13:29Z</time>
      </trkpt>
      <trkpt lat="46.74246" lon="3.02526">
        <ele>210</ele>
        <time>2019-02-07T16:14:29Z</time>
      </trkpt>
      <trkpt lat="46.74236" lon="3.02496">
        <ele>209</ele>
        <time>2019-02-07T16:15:29Z</time>
      </trkpt>
      <trkpt lat="46.74157" lon="3.02413">
        <ele>209</ele>
        <time>2019-02-07T16:16:29Z</time>
      </trkpt>
      <trkpt lat="46.74108" lon="3.02365">
        <ele>209</ele>
        <time>2019-02-07T16:17:29Z</time>
      </trkpt>
      <trkpt lat="46.74055" lon="3.02307">
        <ele>210</ele>
        <time>2019-02-07T16:18:29Z</time>
      </trkpt>
      <trkpt lat="46.73987" lon="3.02241">
        <ele>211</ele>
        <time>2019-02-07T16:19:29Z</time>
      </trkpt>
      <trkpt lat="46.7392" lon="3.02203">
        <ele>211</ele>
        <time>2019-02-07T16:20:29Z</time>
      </trkpt>
      <trkpt lat="46.73863" lon="3.02159">
        <ele>212</ele>
        <time>2019-02-07T16:21:29Z</time>
      </trkpt>
      <trkpt lat="46.7381" lon="3.02108">
        <ele>211</ele>
        <time>2019-02-07T16:22:29Z</time>
      </trkpt>
      <trkpt lat="46.7377" lon="3.02078">
        <ele>211</ele>
        <time>2019-02-07T16:23:29Z</time>
      </trkpt>
      <trkpt lat="46.73705" lon="3.02004">
        <ele>211</ele>
        <time>2019-02-07T16:24:29Z</time>
      </trkpt>
      <trkpt lat="46.73658" lon="3.0198">
        <ele>211</ele>
        <time>2019-02-07T16:25:29Z</time>
      </trkpt>
      <trkpt lat="46.73598" lon="3.01963">
        <ele>213</ele>
        <time>2019-02-07T16:26:29Z</time>
      </trkpt>
      <trkpt lat="46.73574" lon="3.01955">
        <ele>213</ele>
        <time>2019-02-07T16:27:29Z</time>
      </trkpt>
      <trkpt lat="46.73543" lon="3.01934">
        <ele>213</ele>
        <time>2019-02-07T16:28:29Z</time>
      </trkpt>
      <trkpt lat="46.73476" lon="3.01853">
        <ele>213</ele>
        <time>2019-02-07T16:29:29Z</time>
      </trkpt>
      <trkpt lat="46.73449" lon="3.01825">
        <ele>214</ele>
        <time>2019-02-07T16:30:29Z</time>
      </trkpt>
      <trkpt lat="46.73409" lon="3.01811">
        <ele>214</ele>
        <time>2019-02-07T16:31:29Z</time>
      </trkpt>
      <trkpt lat="46.73326" lon="3.01763">
        <ele>212</ele>
        <time>2019-02-07T16:32:29Z</time>
      </trkpt>
      <trkpt lat="46.73226" lon="3.01708">
        <ele>209</ele>
        <time>2019-02-07T16:33:29Z</time>
      </trkpt>
      <trkpt lat="46.7318" lon="3.01701">
        <ele>208</ele>
        <time>2019-02-07T16:34:29Z</time>
      </trkpt>
      <trkpt lat="46.73138" lon="3.01719">
        <ele>207</ele>
        <time>2019-02-07T16:35:29Z</time>
      </trkpt>
      <trkpt lat="46.73065" lon="3.01787">
        <ele>207</ele>
        <time>2019-02-07T16:36:29Z</time>
      </trkpt>
      <trkpt lat="46.72962" lon="3.0188">
        <ele>208</ele>
        <time>2019-02-07T16:37:29Z</time>
      </trkpt>
      <trkpt lat="46.72925" lon="3.01916">
        <ele>207</ele>
        <time>2019-02-07T16:38:29Z</time>
      </trkpt>
      <trkpt lat="46.72936" lon="3.01821">
        <ele>202</ele>
        <time>2019-02-07T16:39:29Z</time>
      </trkpt>
      <trkpt lat="46.72922" lon="3.01746">
        <ele>195</ele>
        <time>2019-02-07T16:40:29Z</time>
      </trkpt>
      <trkpt lat="46.72926" lon="3.01707">
        <ele>194</ele>
        <time>2019-02-07T16:41:29Z</time>
      </trkpt>
      <trkpt lat="46.7294" lon="3.01611">
        <ele>192</ele>
        <time>2019-02-07T16:42:29Z</time>
      </trkpt>
      <trkpt lat="46.72943" lon="3.01514">
        <ele>192</ele>
        <time>2019-02-07T16:43:29Z</time>
      </trkpt>
      <trkpt lat="46.72938" lon="3.0144">
        <ele>193</ele>
        <time>2019-02-07T16:44:29Z</time>
      </trkpt>
      <trkpt lat="46.72918" lon="3.01394">
        <ele>195</ele>
        <time>2019-02-07T16:45:29Z</time>
      </trkpt>
      <trkpt lat="46.72874" lon="3.01354">
        <ele>198</ele>
        <time>2019-02-07T16:46:29Z</time>
      </trkpt>
      <trkpt lat="46.72837" lon="3.01317">
        <ele>200</ele>
        <time>2019-02-07T16:47:29Z</time>
      </trkpt>
      <trkpt lat="46.72723" lon="3.01211">
        <ele>205</ele>
        <time>2019-02-07T16:48:29Z</time>
      </trkpt>
      <trkpt lat="46.72672" lon="3.01185">
        <ele>204</ele>
        <time>2019-02-07T16:49:29Z</time>
      </trkpt>
      <trkpt lat="46.72628" lon="3.01157">
        <ele>204</ele>
        <time>2019-02-07T16:50:29Z</time>
      </trkpt>
      <trkpt lat="46.72585" lon="3.01108">
        <ele>204</ele>
        <time>2019-02-07T16:51:29Z</time>
      </trkpt>
      <trkpt lat="46.72538" lon="3.01032">
        <ele>203</ele>
        <time>2019-02-07T16:52:29Z</time>
      </trkpt>
      <trkpt lat="46.72514" lon="3.00992">
        <ele>203</ele>
        <time>2019-02-07T16:53:29Z</time>
      </trkpt>
      <trkpt lat="46.72469" lon="3.00926">
        <ele>204</ele>
        <time>2019-02-07T16:54:29Z</time>
      </trkpt>
      <trkpt lat="46.72431" lon="3.00845">
        <ele>206</ele>
        <time>2019-02-07T16:55:29Z</time>
      </trkpt>
      <trkpt lat="46.72389" lon="3.00774">
        <ele>206</ele>
        <time>2019-02-07T16:56:29Z</time>
      </trkpt>
      <trkpt lat="46.72352" lon="3.00742">
        <ele>204</ele>
        <time>2019-02-07T16:57:29Z</time>
      </trkpt>
      <trkpt lat="46.72326" lon="3.00724">
        <ele>204</ele>
        <time>2019-02-07T16:58:29Z</time>
      </trkpt>
      <trkpt lat="46.72297" lon="3.00693">
        <ele>202</ele>
        <time>2019-02-07T16:59:29Z</time>
      </trkpt>
      <trkpt lat="46.72272" lon="3.00653">
        <ele>201</ele>
        <time>2019-02-07T17:00:29Z</time>
      </trkpt>
      <trkpt lat="46.72251" lon="3.00567">
        <ele>202</ele>
        <time>2019-02-07T17:01:29Z</time>
      </trkpt>
      <trkpt lat="46.7225" lon="3.00503">
        <ele>203</ele>
        <time>2019-02-07T17:02:29Z</time>
      </trkpt>
      <trkpt lat="46.72257" lon="3.00429">
        <ele>204</ele>
        <time>2019-02-07T17:03:29Z</time>
      </trkpt>
      <trkpt lat="46.72265" lon="3.00394">
        <ele>205</ele>
        <time>2019-02-07T17:04:29Z</time>
      </trkpt>
      <trkpt lat="46.72264" lon="3.00317">
        <ele>207</ele>
        <time>2019-02-07T17:05:29Z</time>
      </trkpt>
      <trkpt lat="46.72253" lon="3.0029">
        <ele>207</ele>
        <time>2019-02-07T17:06:29Z</time>
      </trkpt>
      <trkpt lat="46.72231" lon="3.00288">
        <ele>206</ele>
        <time>2019-02-07T17:07:29Z</time>
      </trkpt>
      <trkpt lat="46.72198" lon="3.00292">
        <ele>206</ele>
        <time>2019-02-07T17:08:29Z</time>
      </trkpt>
      <trkpt lat="46.72184" lon="3.00286">
        <ele>206</ele>
        <time>2019-02-07T17:09:29Z</time>
      </trkpt>
      <trkpt lat="46.72161" lon="3.00261">
        <ele>207</ele>
        <time>2019-02-07T17:10:29Z</time>
      </trkpt>
      <trkpt lat="46.72094" lon="3.00145">
        <ele>211</ele>
        <time>2019-02-07T17:11:29Z</time>
      </trkpt>
      <trkpt lat="46.72075" lon="3.00089">
        <ele>213</ele>
        <time>2019-02-07T17:12:29Z</time>
      </trkpt>
      <trkpt lat="46.72057" lon="3.00066">
        <ele>213</ele>
        <time>2019-02-07T17:13:29Z</time>
      </trkpt>
      <trkpt lat="46.71974" lon="3.00052">
        <ele>211</ele>
        <time>2019-02-07T17:14:29Z</time>
      </trkpt>
      <trkpt lat="46.7192" lon="3.00096">
        <ele>208</ele>
        <time>2019-02-07T17:15:29Z</time>
      </trkpt>
      <trkpt lat="46.71874" lon="3.00128">
        <ele>203</ele>
        <time>2019-02-07T17:16:29Z</time>
      </trkpt>
      <trkpt lat="46.71829" lon="3.00123">
        <ele>200</ele>
        <time>2019-02-07T17:17:29Z</time>
      </trkpt>
      <trkpt lat="46.71779" lon="3.00109">
        <ele>198</ele>
        <time>2019-02-07T17:18:29Z</time>
      </trkpt>
      <trkpt lat="46.71744" lon="3.00087">
        <ele>197</ele>
        <time>2019-02-07T17:19:29Z</time>
      </trkpt>
      <trkpt lat="46.71739" lon="3.00011">
        <ele>198</ele>
        <time>2019-02-07T17:20:29Z</time>
      </trkpt>
      <trkpt lat="46.71738" lon="2.99803">
        <ele>200</ele>
        <time>2019-02-07T17:21:29Z</time>
      </trkpt>
      <trkpt lat="46.71731" lon="2.99758">
        <ele>199</ele>
        <time>2019-02-07T17:22:29Z</time>
      </trkpt>
      <trkpt lat="46.7172" lon="2.99738">
        <ele>198</ele>
        <time>2019-02-07T17:23:29Z</time>
      </trkpt>
      <trkpt lat="46.71611" lon="2.99669">
        <ele>196</ele>
        <time>2019-02-07T17:24:29Z</time>
      </trkpt>
      <trkpt lat="46.71528" lon="2.99619">
        <ele>197</ele>
        <time>2019-02-07T17:25:29Z</time>
      </trkpt>
      <trkpt lat="46.71474" lon="2.996">
        <ele>197</ele>
        <time>2019-02-07T17:26:29Z</time>
      </trkpt>
      <trkpt lat="46.71433" lon="2.99589">
        <ele>196</ele>
        <time>2019-02-07T17:27:29Z</time>
      </trkpt>
      <trkpt lat="46.71412" lon="2.99578">
        <ele>196</ele>
        <time>2019-02-07T17:28:29Z</time>
      </trkpt>
      <trkpt lat="46.71401" lon="2.99552">
        <ele>197</ele>
        <time>2019-02-07T17:29:29Z</time>
      </trkpt>
      <trkpt lat="46.7141" lon="2.99486">
        <ele>201</ele>
        <time>2019-02-07T17:30:29Z</time>
      </trkpt>
      <trkpt lat="46.71398" lon="2.99456">
        <ele>202</ele>
        <time>2019-02-07T17:31:29Z</time>
      </trkpt>
      <trkpt lat="46.71386" lon="2.99428">
        <ele>202</ele>
        <time>2019-02-07T17:32:29Z</time>
      </trkpt>
      <trkpt lat="46.71378" lon="2.9935">
        <ele>204</ele>
        <time>2019-02-07T17:33:29Z</time>
      </trkpt>
      <trkpt lat="46.71376" lon="2.99304">
        <ele>205</ele>
        <time>2019-02-07T17:34:29Z</time>
      </trkpt>
      <trkpt lat="46.71357" lon="2.99224">
        <ele>206</ele>
        <time>2019-02-07T17:35:29Z</time>
      </trkpt>
      <trkpt lat="46.71325" lon="2.99143">
        <ele>207</ele>
        <time>2019-02-07T17:36:29Z</time>
      </trkpt>
      <trkpt lat="46.71307" lon="2.9912">
        <ele>207</ele>
        <time>2019-02-07T17:37:29Z</time>
      </trkpt>
      <trkpt lat="46.71263" lon="2.99111">
        <ele>206</ele>
        <time>2019-02-07T17:38:29Z</time>
      </trkpt>
      <trkpt lat="46.71185" lon="2.99102">
        <ele>204</ele>
        <time>2019-02-07T17:39:29Z</time>
      </trkpt>
      <trkpt lat="46.71142" lon="2.98958">
        <ele>207</ele>
        <time>2019-02-07T17:40:29Z</time>
      </trkpt>
      <trkpt lat="46.7114" lon="2.98907">
        <ele>209</ele>
        <time>2019-02-07T17:41:29Z</time>
      </trkpt>
      <trkpt lat="46.71141" lon="2.98743">
        <ele>214</ele>
        <time>2019-02-07T17:42:29Z</time>
      </trkpt>
      <trkpt lat="46.71144" lon="2.98688">
        <ele>216</ele>
        <time>2019-02-07T17:43:29Z</time>
      </trkpt>
      <trkpt lat="46.71169" lon="2.9857">
        <ele>219</ele>
        <time>2019-02-07T17:44:29Z</time>
      </trkpt>
      <trkpt lat="46.71262" lon="2.98171">
        <ele>219</ele>
        <time>2019-02-07T17:45:29Z</time>
      </trkpt>
      <trkpt lat="46.71321" lon="2.98004">
        <ele>219</ele>
        <time>2019-02-07T17:46:29Z</time>
      </trkpt>
      <trkpt lat="46.71419" lon="2.97733">
        <ele>217</ele>
        <time>2019-02-07T17:47:29Z</time>
      </trkpt>
      <trkpt lat="46.71587" lon="2.97261">
        <ele>218</ele>
        <time>2019-02-07T17:48:29Z</time>
      </trkpt>
      <trkpt lat="46.71689" lon="2.9701">
        <ele>222</ele>
        <time>2019-02-07T17:49:29Z</time>
      </trkpt>
      <trkpt lat="46.71831" lon="2.96677">
        <ele>222</ele>
        <time>2019-02-07T17:50:29Z</time>
      </trkpt>
      <trkpt lat="46.71944" lon="2.9646">
        <ele>225</ele>
        <time>2019-02-07T17:51:29Z</time>
      </trkpt>
      <trkpt lat="46.72102" lon="2.96164">
        <ele>222</ele>
        <time>2019-02-07T17:52:29Z</time>
      </trkpt>
      <trkpt lat="46.72112" lon="2.96123">
        <ele>222</ele>
        <time>2019-02-07T17:53:29Z</time>
      </trkpt>
      <trkpt lat="46.72124" lon="2.96095">
        <ele>222</ele>
        <time>2019-02-07T17:54:29Z</time>
      </trkpt>
      <trkpt lat="46.72159" lon="2.95983">
        <ele>223</ele>
        <time>2019-02-07T17:55:29Z</time>
      </trkpt>
      <trkpt lat="46.72212" lon="2.95873">
        <ele>223</ele>
        <time>2019-02-07T17:56:29Z</time>
      </trkpt>
      <trkpt lat="46.72237" lon="2.95813">
        <ele>223</ele>
        <time>2019-02-07T17:57:29Z</time>
      </trkpt>
      <trkpt lat="46.72271" lon="2.95748">
        <ele>222</ele>
        <time>2019-02-07T17:58:29Z</time>
      </trkpt>
      <trkpt lat="46.72341" lon="2.95684">
        <ele>221</ele>
        <time>2019-02-07T17:59:29Z</time>
      </trkpt>
      <trkpt lat="46.72348" lon="2.95667">
        <ele>221</ele>
        <time>2019-02-07T18:00:29Z</time>
      </trkpt>
      <trkpt lat="46.72585" lon="2.95136">
        <ele>223</ele>
        <time>2019-02-07T18:01:29Z</time>
      </trkpt>
      <trkpt lat="46.72634" lon="2.95057">
        <ele>220</ele>
        <time>2019-02-07T18:02:29Z</time>
      </trkpt>
      <trkpt lat="46.72775" lon="2.94913">
        <ele>219</ele>
        <time>2019-02-07T18:03:29Z</time>
      </trkpt>
      <trkpt lat="46.72862" lon="2.94754">
        <ele>221</ele>
        <time>2019-02-07T18:04:29Z</time>
      </trkpt>
      <trkpt lat="46.72905" lon="2.94667">
        <ele>221</ele>
        <time>2019-02-07T18:05:29Z</time>
      </trkpt>
      <trkpt lat="46.72889" lon="2.94483">
        <ele>223</ele>
        <time>2019-02-07T18:06:29Z</time>
      </trkpt>
      <trkpt lat="46.72899" lon="2.94404">
        <ele>224</ele>
        <time>2019-02-07T18:07:29Z</time>
      </trkpt>
      <trkpt lat="46.72874" lon="2.94285">
        <ele>223</ele>
        <time>2019-02-07T18:08:29Z</time>
      </trkpt>
      <trkpt lat="46.72872" lon="2.94176">
        <ele>224</ele>
        <time>2019-02-07T18:09:29Z</time>
      </trkpt>
      <trkpt lat="46.72924" lon="2.94097">
        <ele>223</ele>
        <time>2019-02-07T18:10:29Z</time>
      </trkpt>
      <trkpt lat="46.72953" lon="2.94003">
        <ele>221</ele>
        <time>2019-02-07T18:11:29Z</time>
      </trkpt>
      <trkpt lat="46.72958" lon="2.93953">
        <ele>221</ele>
        <time>2019-02-07T18:12:29Z</time>
      </trkpt>
      <trkpt lat="46.73079" lon="2.93758">
        <ele>213</ele>
        <time>2019-02-07T18:13:29Z</time>
      </trkpt>
      <trkpt lat="46.73166" lon="2.93725">
        <ele>211</ele>
        <time>2019-02-07T18:14:29Z</time>
      </trkpt>
      <trkpt lat="46.73196" lon="2.93671">
        <ele>209</ele>
        <time>2019-02-07T18:15:29Z</time>
      </trkpt>
      <trkpt lat="46.73262" lon="2.93617">
        <ele>207</ele>
        <time>2019-02-07T18:16:29Z</time>
      </trkpt>
      <trkpt lat="46.73275" lon="2.93455">
        <ele>204</ele>
        <time>2019-02-07T18:17:29Z</time>
      </trkpt>
      <trkpt lat="46.73253" lon="2.93314">
        <ele>206</ele>
        <time>2019-02-07T18:18:29Z</time>
      </trkpt>
      <trkpt lat="46.73151" lon="2.92895">
        <ele>214</ele>
        <time>2019-02-07T18:19:29Z</time>
      </trkpt>
      <trkpt lat="46.73109" lon="2.92617">
        <ele>217</ele>
        <time>2019-02-07T18:20:29Z</time>
      </trkpt>
      <trkpt lat="46.73109" lon="2.92534">
        <ele>219</ele>
        <time>2019-02-07T18:21:29Z</time>
      </trkpt>
      <trkpt lat="46.73154" lon="2.92242">
        <ele>214</ele>
        <time>2019-02-07T18:22:29Z</time>
      </trkpt>
      <trkpt lat="46.7305" lon="2.91881">
        <ele>214</ele>
        <time>2019-02-07T18:23:29Z</time>
      </trkpt>
      <trkpt lat="46.72943" lon="2.91528">
        <ele>219</ele>
        <time>2019-02-07T18:24:29Z</time>
      </trkpt>
      <trkpt lat="46.72914" lon="2.91466">
        <ele>218</ele>
        <time>2019-02-07T18:25:29Z</time>
      </trkpt>
      <trkpt lat="46.72832" lon="2.91304">
        <ele>216</ele>
        <time>2019-02-07T18:26:29Z</time>
      </trkpt>
      <trkpt lat="46.7281" lon="2.91134">
        <ele>219</ele>
        <time>2019-02-07T18:27:29Z</time>
      </trkpt>
      <trkpt lat="46.72743" lon="2.90586">
        <ele>233</ele>
        <time>2019-02-07T18:28:29Z</time>
      </trkpt>
      <trkpt lat="46.72698" lon="2.90347">
        <ele>234</ele>
        <time>2019-02-07T18:29:29Z</time>
      </trkpt>
      <trkpt lat="46.72609" lon="2.8942">
        <ele>241</ele>
        <time>2019-02-07T18:30:29Z</time>
      </trkpt>
      <trkpt lat="46.72623" lon="2.89094">
        <ele>252</ele>
        <time>2019-02-07T18:31:29Z</time>
      </trkpt>
      <trkpt lat="46.72545" lon="2.89091">
        <ele>254</ele>
        <time>2019-02-07T18:32:29Z</time>
      </trkpt>
      <trkpt lat="46.72456" lon="2.89037">
        <ele>255</ele>
        <time>2019-02-07T18:33:29Z</time>
      </trkpt>
      <trkpt lat="46.72436" lon="2.89022">
        <ele>254</ele>
        <time>2019-02-07T18:34:29Z</time>
      </trkpt>
      <trkpt lat="46.72376" lon="2.89043">
        <ele>252</ele>
        <time>2019-02-07T18:35:29Z</time>
      </trkpt>
      <trkpt lat="46.72331" lon="2.88931">
        <ele>246</ele>
        <time>2019-02-07T18:36:29Z</time>
      </trkpt>
      <trkpt lat="46.72289" lon="2.88879">
        <ele>242</ele>
        <time>2019-02-07T18:37:29Z</time>
      </trkpt>
      <trkpt lat="46.72247" lon="2.88806">
        <ele>236</ele>
        <time>2019-02-07T18:38:29Z</time>
      </trkpt>
      <trkpt lat="46.7219" lon="2.8879">
        <ele>234</ele>
        <time>2019-02-07T18:39:29Z</time>
      </trkpt>
      <trkpt lat="46.72175" lon="2.88768">
        <ele>233</ele>
        <time>2019-02-07T18:40:29Z</time>
      </trkpt>
      <trkpt lat="46.72175" lon="2.88677">
        <ele>231</ele>
        <time>2019-02-07T18:41:29Z</time>
      </trkpt>
      <trkpt lat="46.72158" lon="2.88607">
        <ele>232</ele>
        <time>2019-02-07T18:42:29Z</time>
      </trkpt>
      <trkpt lat="46.72034" lon="2.88357">
        <ele>243</ele>
        <time>2019-02-07T18:43:29Z</time>
      </trkpt>
      <trkpt lat="46.71933" lon="2.88192">
        <ele>248</ele>
        <time>2019-02-07T18:44:29Z</time>
      </trkpt>
      <trkpt lat="46.72032" lon="2.88025">
        <ele>251</ele>
        <time>2019-02-07T18:45:29Z</time>
      </trkpt>
      <trkpt lat="46.72011" lon="2.88016">
        <ele>251</ele>
        <time>2019-02-07T18:46:29Z</time>
      </trkpt>
      <trkpt lat="46.71994" lon="2.87956">
        <ele>254</ele>
        <time>2019-02-07T18:47:29Z</time>
      </trkpt>
      <trkpt lat="46.71986" lon="2.87879">
        <ele>256</ele>
        <time>2019-02-07T18:48:29Z</time>
      </trkpt>
      <trkpt lat="46.71954" lon="2.878">
        <ele>258</ele>
        <time>2019-02-07T18:49:29Z</time>
      </trkpt>
      <trkpt lat="46.71912" lon="2.87663">
        <ele>260</ele>
        <time>2019-02-07T18:50:29Z</time>
      </trkpt>
      <trkpt lat="46.71883" lon="2.8757">
        <ele>261</ele>
        <time>2019-02-07T18:51:29Z</time>
      </trkpt>
      <trkpt lat="46.71835" lon="2.87424">
        <ele>264</ele>
        <time>2019-02-07T18:52:29Z</time>
      </trkpt>
      <trkpt lat="46.71793" lon="2.87071">
        <ele>273</ele>
        <time>2019-02-07T18:53:29Z</time>
      </trkpt>
      <trkpt lat="46.71773" lon="2.86984">
        <ele>275</ele>
        <time>2019-02-07T18:54:29Z</time>
      </trkpt>
      <trkpt lat="46.71585" lon="2.86461">
        <ele>272</ele>
        <time>2019-02-07T18:55:29Z</time>
      </trkpt>
      <trkpt lat="46.71486" lon="2.86324">
        <ele>270</ele>
        <time>2019-02-07T18:56:29Z</time>
      </trkpt>
      <trkpt lat="46.71318" lon="2.85995">
        <ele>267</ele>
        <time>2019-02-07T18:57:29Z</time>
      </trkpt>
      <trkpt lat="46.71009" lon="2.85385">
        <ele>253</ele>
        <time>2019-02-07T18:58:29Z</time>
      </trkpt>
      <trkpt lat="46.70922" lon="2.85129">
        <ele>247</ele>
        <time>2019-02-07T18:59:29Z</time>
      </trkpt>
      <trkpt lat="46.70816" lon="2.8453">
        <ele>245</ele>
        <time>2019-02-07T19:00:29Z</time>
      </trkpt>
      <trkpt lat="46.70729" lon="2.84076">
        <ele>248</ele>
        <time>2019-02-07T19:01:29Z</time>
      </trkpt>
      <trkpt lat="46.70677" lon="2.83913">
        <ele>248</ele>
        <time>2019-02-07T19:02:29Z</time>
      </trkpt>
      <trkpt lat="46.7067" lon="2.83837">
        <ele>247</ele>
        <time>2019-02-07T19:03:29Z</time>
      </trkpt>
      <trkpt lat="46.70729" lon="2.8374">
        <ele>245</ele>
        <time>2019-02-07T19:04:29Z</time>
      </trkpt>
      <trkpt lat="46.70823" lon="2.83585">
        <ele>238</ele>
        <time>2019-02-07T19:05:29Z</time>
      </trkpt>
      <trkpt lat="46.70892" lon="2.83444">
        <ele>236</ele>
        <time>2019-02-07T19:06:29Z</time>
      </trkpt>
      <trkpt lat="46.71031" lon="2.83148">
        <ele>228</ele>
        <time>2019-02-07T19:07:29Z</time>
      </trkpt>
      <trkpt lat="46.71071" lon="2.82989">
        <ele>228</ele>
        <time>2019-02-07T19:08:29Z</time>
      </trkpt>
      <trkpt lat="46.71177" lon="2.82747">
        <ele>229</ele>
        <time>2019-02-07T19:09:29Z</time>
      </trkpt>
      <trkpt lat="46.71204" lon="2.82466">
        <ele>222</ele>
        <time>2019-02-07T19:10:29Z</time>
      </trkpt>
      <trkpt lat="46.71249" lon="2.82354">
        <ele>219</ele>
        <time>2019-02-07T19:11:29Z</time>
      </trkpt>
      <trkpt lat="46.71355" lon="2.8221">
        <ele>215</ele>
        <time>2019-02-07T19:12:29Z</time>
      </trkpt>
      <trkpt lat="46.7138" lon="2.82102">
        <ele>215</ele>
        <time>2019-02-07T19:13:29Z</time>
      </trkpt>
      <trkpt lat="46.71258" lon="2.81761">
        <ele>223</ele>
        <time>2019-02-07T19:14:29Z</time>
      </trkpt>
    </trkseg>
  </trk>
</gpx>